createdAt,value
2018-12-02T00:00:24.464Z,99485.41
2018-12-02T00:00:59.072Z,99468.34
2018-12-02T00:01:33.672Z,99475.30
2018-12-02T00:02:08.693Z,99474.20
2018-12-02T00:02:43.348Z,99472.19
2018-12-02T00:03:18.291Z,99474.83
2018-12-02T00:03:53.208Z,99474.56
2018-12-02T00:04:27.806Z,99478.44
2018-12-02T00:05:02.499Z,99471.23
2018-12-02T00:05:38.338Z,99475.41
2018-12-02T00:06:12.952Z,99464.65
2018-12-02T00:06:47.629Z,99467.45
2018-12-02T00:07:22.270Z,99476.02
2018-12-02T00:07:57.396Z,99486.78
2018-12-02T00:08:32.006Z,99460.09
2018-12-02T00:09:07.581Z,99467.95
2018-12-02T00:09:42.205Z,99455.51
2018-12-02T00:10:18.029Z,99458.14
2018-12-02T00:10:52.877Z,99460.55
2018-12-02T00:12:00.941Z,99459.31
2018-12-02T00:12:35.553Z,99447.91
2018-12-02T00:13:10.288Z,99464.78
2018-12-02T00:13:45.030Z,99450.54
2018-12-02T00:14:19.778Z,99461.90
2018-12-02T00:14:54.421Z,99405.86
2018-12-02T00:15:30.554Z,99450.74
2018-12-02T00:16:05.818Z,99445.64
2018-12-02T00:16:40.442Z,99437.52
2018-12-02T00:17:15.413Z,99446.98
2018-12-02T00:17:51.322Z,99442.56
2018-12-02T00:18:26.001Z,99440.42
2018-12-02T00:19:00.617Z,99438.80
2018-12-02T00:19:35.650Z,99436.67
2018-12-02T00:20:11.702Z,99443.13
2018-12-02T00:20:46.304Z,99441.27
2018-12-02T00:21:20.994Z,99426.30
2018-12-02T00:21:55.615Z,99436.28
2018-12-02T00:22:30.262Z,99435.53
2018-12-02T00:23:05.329Z,99425.26
2018-12-02T00:23:39.978Z,99421.87
2018-12-02T00:24:14.772Z,99425.80
2018-12-02T00:24:49.548Z,99422.23
2018-12-02T00:25:24.214Z,99420.31
2018-12-02T00:25:58.849Z,99429.52
2018-12-02T00:26:33.573Z,99440.28
2018-12-02T00:27:08.269Z,99417.41
2018-12-02T00:32:50.086Z,99407.98
2018-12-02T00:33:24.757Z,99419.47
2018-12-02T00:33:59.389Z,99408.27
2018-12-02T00:34:34.309Z,99403.73
2018-12-02T00:35:11.235Z,99405.80
2018-12-02T00:35:46.164Z,99410.95
2018-12-02T00:36:20.981Z,99406.13
2018-12-02T00:36:55.616Z,99403.61
2018-12-02T00:37:30.204Z,99418.25
2018-12-02T00:38:06.884Z,99408.89
2018-12-02T00:38:41.493Z,99396.44
2018-12-02T00:39:16.310Z,99408.59
2018-12-02T00:39:51.037Z,99399.74
2018-12-02T00:40:26.365Z,99405.02
2018-12-02T00:41:01.350Z,99395.55
2018-12-02T00:41:36.109Z,99399.86
2018-12-02T00:42:10.734Z,99395.60
2018-12-02T00:42:51.025Z,99400.77
2018-12-02T00:43:25.802Z,99396.53
2018-12-02T00:44:00.558Z,99396.53
2018-12-02T00:44:35.171Z,99391.95
2018-12-02T00:45:11.352Z,99399.68
2018-12-02T00:45:45.956Z,99401.75
2018-12-02T00:46:20.548Z,99396.27
2018-12-02T00:46:55.970Z,99387.96
2018-12-02T00:47:36.877Z,99394.64
2018-12-02T00:48:11.540Z,99394.64
2018-12-02T00:48:46.149Z,99393.80
2018-12-02T00:49:20.782Z,99384.84
2018-12-02T00:49:55.412Z,99392.28
2018-12-02T00:50:30.320Z,99395.75
2018-12-02T00:51:05.231Z,99384.60
2018-12-02T00:51:39.826Z,99383.55
2018-12-02T00:52:14.890Z,99383.70
2018-12-02T00:52:52.396Z,99380.40
2018-12-02T00:54:00.602Z,99377.88
2018-12-02T00:54:35.382Z,99383.13
2018-12-02T00:55:44.273Z,99381.00
2018-12-02T00:56:17.741Z,99390.41
2018-12-02T00:56:52.335Z,99382.73
2018-12-02T00:57:27.043Z,99388.52
2018-12-02T00:58:01.729Z,99383.06
2018-12-02T00:58:36.405Z,99381.17
2018-12-02T00:59:11.012Z,99373.59
2018-12-02T00:59:45.800Z,99379.05
2018-12-02T01:00:20.845Z,99381.95
2018-12-02T01:00:55.585Z,99388.48
2018-12-02T01:01:30.420Z,99371.97
2018-12-02T01:02:05.734Z,99377.97
2018-12-02T01:02:40.422Z,99386.48
2018-12-02T01:03:15.142Z,99365.71
2018-12-02T01:03:49.807Z,99373.70
2018-12-02T01:04:24.749Z,99378.20
2018-12-02T01:04:59.605Z,99375.51
2018-12-02T01:05:34.511Z,99376.80
2018-12-02T01:06:09.186Z,99381.38
2018-12-02T01:06:43.821Z,99378.03
2018-12-02T01:07:18.683Z,99372.92
2018-12-02T01:07:53.346Z,99372.36
2018-12-02T01:08:28.138Z,99373.38
2018-12-02T01:09:03.152Z,99364.75
2018-12-02T01:09:37.813Z,99362.56
2018-12-02T01:10:16.359Z,99376.23
2018-12-02T01:10:51.021Z,99372.88
2018-12-02T01:11:26.149Z,99375.18
2018-12-02T01:12:00.876Z,99386.93
2018-12-02T01:12:35.770Z,99366.10
2018-12-02T01:13:10.921Z,99369.28
2018-12-02T01:13:45.569Z,99379.59
2018-12-02T01:14:20.585Z,99371.41
2018-12-02T01:14:55.504Z,99364.30
2018-12-02T01:15:32.186Z,99360.16
2018-12-02T01:16:07.210Z,99363.13
2018-12-02T01:16:41.841Z,99364.99
2018-12-02T01:17:16.501Z,99357.64
2018-12-02T01:17:51.393Z,99365.38
2018-12-02T01:18:26.112Z,99356.95
2018-12-02T01:19:00.970Z,99360.95
2018-12-02T01:19:35.719Z,99373.05
2018-12-02T01:20:14.449Z,99351.02
2018-12-02T01:20:49.058Z,99354.17
2018-12-02T01:21:23.679Z,99361.06
2018-12-02T01:21:58.540Z,99347.94
2018-12-02T01:22:33.343Z,99340.08
2018-12-02T01:23:08.058Z,99348.77
2018-12-02T01:23:42.690Z,99351.47
2018-12-02T01:24:17.381Z,99347.42
2018-12-02T01:24:52.006Z,99347.21
2018-12-02T01:25:26.723Z,99360.05
2018-12-02T01:26:01.671Z,99356.78
2018-12-02T01:26:36.391Z,99355.45
2018-12-02T01:27:11.099Z,99360.88
2018-12-02T01:27:46.432Z,99354.50
2018-12-02T01:28:21.035Z,99350.00
2018-12-02T01:28:55.702Z,99346.64
2018-12-02T01:29:30.554Z,99359.20
2018-12-02T01:30:09.793Z,99349.85
2018-12-02T01:30:44.390Z,99347.42
2018-12-02T01:31:19.012Z,99346.31
2018-12-02T01:31:53.605Z,99346.64
2018-12-02T01:32:28.338Z,99342.05
2018-12-02T01:33:03.543Z,99342.95
2018-12-02T01:33:38.166Z,99345.08
2018-12-02T01:34:12.770Z,99363.85
2018-12-02T01:34:47.337Z,99344.64
2018-12-02T01:35:22.378Z,99341.43
2018-12-02T01:35:57.018Z,99343.34
2018-12-02T01:36:31.715Z,99339.81
2018-12-02T01:37:06.336Z,99344.13
2018-12-02T01:37:41.010Z,99337.89
2018-12-02T01:38:15.621Z,99331.56
2018-12-02T01:38:50.254Z,99344.97
2018-12-02T01:39:24.938Z,99336.91
2018-12-02T01:39:59.607Z,99340.32
2018-12-02T01:40:34.446Z,99340.20
2018-12-02T01:41:09.052Z,99338.52
2018-12-02T01:41:43.667Z,99334.33
2018-12-02T01:42:18.254Z,99345.17
2018-12-02T01:42:53.654Z,99331.06
2018-12-02T01:43:28.504Z,99340.65
2018-12-02T01:44:03.965Z,99334.33
2018-12-02T01:44:38.611Z,99340.32
2018-12-02T01:45:16.489Z,99341.88
2018-12-02T01:45:51.152Z,99345.53
2018-12-02T01:46:25.756Z,99336.63
2018-12-02T01:47:00.494Z,99339.36
2018-12-02T01:47:35.183Z,99310.50
2018-12-02T01:48:09.769Z,99338.13
2018-12-02T01:48:44.397Z,99339.48
2018-12-02T01:49:19.017Z,99342.95
2018-12-02T01:49:53.634Z,99347.48
2018-12-02T01:50:28.493Z,99340.02
2018-12-02T01:51:03.273Z,99348.20
2018-12-02T01:51:37.889Z,99333.30
2018-12-02T01:52:12.760Z,99328.98
2018-12-02T01:52:51.402Z,99328.98
2018-12-02T01:53:26.123Z,99334.77
2018-12-02T01:54:00.932Z,99339.03
2018-12-02T01:54:35.544Z,99333.88
2018-12-02T01:55:10.579Z,99334.05
2018-12-02T01:55:45.155Z,99331.45
2018-12-02T01:56:19.749Z,99334.20
2018-12-02T01:56:54.302Z,99333.25
2018-12-02T01:57:29.320Z,99329.11
2018-12-02T01:58:04.021Z,99327.77
2018-12-02T01:58:38.773Z,99321.70
2018-12-02T01:59:13.410Z,99328.45
2018-12-02T01:59:48.115Z,99322.72
2018-12-02T02:00:28.114Z,99322.00
2018-12-02T02:01:02.864Z,99326.31
2018-12-02T02:01:37.468Z,99329.89
2018-12-02T02:02:12.013Z,99322.66
2018-12-02T02:02:46.592Z,99326.08
2018-12-02T02:03:21.215Z,99321.64
2018-12-02T02:03:55.884Z,99326.38
2018-12-02T02:04:30.530Z,99329.83
2018-12-02T02:05:06.510Z,99318.41
2018-12-02T02:05:41.112Z,99311.96
2018-12-02T02:06:15.745Z,99312.73
2018-12-02T02:06:50.404Z,99312.14
2018-12-02T02:07:24.944Z,99304.55
2018-12-02T02:07:59.779Z,99309.71
2018-12-02T02:08:34.436Z,99309.83
2018-12-02T02:09:09.870Z,99311.50
2018-12-02T02:09:44.448Z,99318.02
2018-12-02T02:10:24.206Z,99304.80
2018-12-02T02:10:59.028Z,99310.49
2018-12-02T02:11:33.711Z,99304.22
2018-12-02T02:12:08.360Z,99299.06
2018-12-02T02:12:42.933Z,99293.45
2018-12-02T02:13:17.513Z,99293.30
2018-12-02T02:13:52.215Z,99300.85
2018-12-02T02:14:26.914Z,99289.44
2018-12-02T02:15:01.617Z,99291.17
2018-12-02T02:15:36.284Z,99285.27
2018-12-02T02:16:10.884Z,99291.50
2018-12-02T02:16:45.517Z,99283.92
2018-12-02T02:17:20.138Z,99302.72
2018-12-02T02:17:54.747Z,99292.85
2018-12-02T02:18:29.602Z,99280.23
2018-12-02T02:19:04.805Z,99277.98
2018-12-02T02:19:39.398Z,99286.69
2018-12-02T02:20:16.754Z,99290.72
2018-12-02T02:20:51.361Z,99295.97
2018-12-02T02:21:26.005Z,99276.19
2018-12-02T02:22:00.735Z,99269.64
2018-12-02T02:22:35.492Z,99270.69
2018-12-02T02:23:10.079Z,99279.38
2018-12-02T02:23:44.730Z,99272.78
2018-12-02T02:24:19.337Z,99273.33
2018-12-02T02:24:53.996Z,99272.42
2018-12-02T02:25:28.667Z,99271.13
2018-12-02T02:26:03.300Z,99284.16
2018-12-02T02:26:37.969Z,99265.98
2018-12-02T02:27:12.735Z,99271.84
2018-12-02T02:27:50.788Z,99268.06
2018-12-02T02:28:25.387Z,99265.72
2018-12-02T02:29:00.139Z,99267.52
2018-12-02T02:29:34.844Z,99262.30
2018-12-02T02:30:13.813Z,99266.89
2018-12-02T02:30:48.362Z,99269.92
2018-12-02T02:31:22.983Z,99274.41
2018-12-02T02:31:57.802Z,99269.41
2018-12-02T02:32:32.604Z,99265.77
2018-12-02T02:33:07.255Z,99264.30
2018-12-02T02:33:41.798Z,99262.47
2018-12-02T02:34:16.375Z,99261.84
2018-12-02T02:34:51.038Z,99257.70
2018-12-02T02:35:25.979Z,99259.20
2018-12-02T02:36:00.967Z,99267.17
2018-12-02T02:36:35.641Z,99261.95
2018-12-02T02:37:10.252Z,99250.34
2018-12-02T02:37:45.181Z,99255.66
2018-12-02T02:38:22.659Z,99255.84
2018-12-02T02:38:57.424Z,99269.30
2018-12-02T02:39:32.190Z,99253.20
2018-12-02T02:40:20.934Z,99263.59
2018-12-02T02:40:56.052Z,99258.69
2018-12-02T02:41:30.777Z,99258.02
2018-12-02T02:42:05.734Z,99257.50
2018-12-02T02:42:40.327Z,99258.57
2018-12-02T02:43:14.891Z,99275.63
2018-12-02T02:43:49.617Z,99253.77
2018-12-02T02:44:24.252Z,99263.75
2018-12-02T02:44:59.067Z,99258.34
2018-12-02T02:45:33.956Z,99267.95
2018-12-02T02:46:08.585Z,99266.02
2018-12-02T02:46:43.255Z,99262.44
2018-12-02T02:47:17.821Z,99262.60
2018-12-02T02:47:52.792Z,99254.09
2018-12-02T02:48:27.634Z,99258.90
2018-12-02T02:49:02.582Z,99250.70
2018-12-02T02:49:37.297Z,99241.61
2018-12-02T02:50:20.400Z,99244.55
2018-12-02T02:50:55.171Z,99239.23
2018-12-02T02:51:29.773Z,99235.81
2018-12-02T02:52:04.427Z,99224.53
2018-12-02T02:52:39.715Z,99226.81
2018-12-02T02:53:14.325Z,99224.66
2018-12-02T02:53:48.936Z,99225.95
2018-12-02T02:54:23.942Z,99224.66
2018-12-02T02:54:58.755Z,99236.42
2018-12-02T02:55:33.526Z,99231.27
2018-12-02T02:56:08.175Z,99226.23
2018-12-02T02:56:42.766Z,99222.87
2018-12-02T02:57:17.422Z,99239.35
2018-12-02T02:57:52.049Z,99234.19
2018-12-02T02:58:26.785Z,99221.91
2018-12-02T02:59:01.415Z,99215.47
2018-12-02T02:59:36.013Z,99223.14
2018-12-02T03:00:13.622Z,99216.17
2018-12-02T03:00:48.188Z,99222.81
2018-12-02T03:01:22.831Z,99219.88
2018-12-02T03:01:57.427Z,99219.66
2018-12-02T03:02:32.019Z,99215.98
2018-12-02T03:03:06.679Z,99215.56
2018-12-02T03:03:41.245Z,99216.69
2018-12-02T03:04:15.842Z,99210.63
2018-12-02T03:04:50.415Z,99214.89
2018-12-02T03:05:25.121Z,99209.86
2018-12-02T03:05:59.868Z,99211.24
2018-12-02T03:06:34.489Z,99204.31
2018-12-02T03:07:09.051Z,99231.45
2018-12-02T03:07:43.696Z,99206.98
2018-12-02T03:08:18.306Z,99211.02
2018-12-02T03:08:53.086Z,99200.05
2018-12-02T03:09:27.985Z,99213.89
2018-12-02T03:10:02.622Z,99203.95
2018-12-02T03:10:37.231Z,99200.77
2018-12-02T03:11:11.823Z,99206.15
2018-12-02T03:11:46.598Z,99223.20
2018-12-02T03:12:21.407Z,99198.96
2018-12-02T03:12:56.140Z,99194.86
2018-12-02T03:13:31.042Z,99199.19
2018-12-02T03:14:06.043Z,99192.64
2018-12-02T03:14:40.599Z,99197.96
2018-12-02T03:15:16.358Z,99199.92
2018-12-02T03:15:50.999Z,99188.00
2018-12-02T03:16:25.683Z,99185.74
2018-12-02T03:17:00.383Z,99181.88
2018-12-02T03:17:34.961Z,99175.94
2018-12-02T03:18:09.601Z,99185.68
2018-12-02T03:18:44.179Z,99184.58
2018-12-02T03:19:18.845Z,99186.09
2018-12-02T03:19:53.614Z,99181.01
2018-12-02T03:20:28.253Z,99180.17
2018-12-02T03:21:02.852Z,99184.94
2018-12-02T03:21:37.452Z,99180.49
2018-12-02T03:22:12.108Z,99186.52
2018-12-02T03:22:55.091Z,99180.14
2018-12-02T03:24:03.262Z,99175.11
2018-12-02T03:24:37.886Z,99175.11
2018-12-02T03:25:16.296Z,99169.30
2018-12-02T03:25:50.934Z,99166.14
2018-12-02T03:26:25.714Z,99170.85
2018-12-02T03:27:00.397Z,99156.83
2018-12-02T03:27:35.043Z,99157.89
2018-12-02T03:28:09.705Z,99154.48
2018-12-02T03:28:44.471Z,99156.31
2018-12-02T03:29:19.218Z,99154.18
2018-12-02T03:29:54.083Z,99158.82
2018-12-02T03:30:28.892Z,99155.45
2018-12-02T03:31:03.558Z,99147.80
2018-12-02T03:31:38.201Z,99154.09
2018-12-02T03:32:12.804Z,99150.28
2018-12-02T03:32:47.663Z,99160.92
2018-12-02T03:33:22.329Z,99153.03
2018-12-02T03:33:57.163Z,99147.62
2018-12-02T03:34:31.992Z,99149.52
2018-12-02T03:35:08.264Z,99151.12
2018-12-02T03:35:43.021Z,99154.25
2018-12-02T03:36:17.636Z,99140.23
2018-12-02T03:36:52.361Z,99133.91
2018-12-02T03:37:27.216Z,99143.03
2018-12-02T03:38:01.871Z,99140.30
2018-12-02T03:38:36.501Z,99146.58
2018-12-02T03:39:11.116Z,99140.20
2018-12-02T03:39:45.809Z,99149.77
2018-12-02T03:40:22.655Z,99138.69
2018-12-02T03:40:57.526Z,99135.59
2018-12-02T03:41:32.251Z,99126.86
2018-12-02T03:42:07.924Z,99125.18
2018-12-02T03:42:42.633Z,99136.42
2018-12-02T03:43:17.573Z,99133.08
2018-12-02T03:43:52.288Z,99134.08
2018-12-02T03:44:26.971Z,99146.36
2018-12-02T03:45:01.635Z,99134.09
2018-12-02T03:45:36.283Z,99135.81
2018-12-02T03:46:10.908Z,99145.48
2018-12-02T03:46:45.519Z,99144.69
2018-12-02T03:47:20.174Z,99141.91
2018-12-02T03:47:55.081Z,99136.47
2018-12-02T03:48:29.830Z,99138.11
2018-12-02T03:49:04.699Z,99148.07
2018-12-02T03:49:39.504Z,99142.66
2018-12-02T03:50:17.596Z,99138.30
2018-12-02T03:50:50.906Z,99140.30
2018-12-02T03:51:27.024Z,99136.11
2018-12-02T03:52:01.718Z,99146.14
2018-12-02T03:52:36.461Z,99143.72
2018-12-02T03:53:11.150Z,99142.05
2018-12-02T03:53:45.824Z,99147.61
2018-12-02T03:54:20.464Z,99147.45
2018-12-02T03:54:55.281Z,99140.30
2018-12-02T03:55:30.115Z,99150.44
2018-12-02T03:56:05.046Z,99149.42
2018-12-02T03:56:39.734Z,99145.52
2018-12-02T03:57:14.358Z,99151.36
2018-12-02T03:57:49.106Z,99152.89
2018-12-02T03:58:23.792Z,99145.71
2018-12-02T03:58:58.462Z,99140.95
2018-12-02T03:59:33.121Z,99143.02
2018-12-02T04:00:13.462Z,99141.34
2018-12-02T04:00:48.276Z,99137.55
2018-12-02T04:01:22.990Z,99140.06
2018-12-02T04:01:57.796Z,99144.77
2018-12-02T04:02:32.446Z,99140.27
2018-12-02T04:03:07.234Z,99136.02
2018-12-02T04:03:41.972Z,99144.13
2018-12-02T04:04:16.585Z,99135.48
2018-12-02T04:04:51.451Z,99144.38
2018-12-02T04:05:26.823Z,99145.48
2018-12-02T04:06:01.527Z,99134.61
2018-12-02T04:06:36.178Z,99138.27
2018-12-02T04:07:10.804Z,99139.87
2018-12-02T04:07:45.408Z,99137.25
2018-12-02T04:08:20.035Z,99141.56
2018-12-02T04:08:54.868Z,99145.03
2018-12-02T04:09:29.592Z,99137.75
2018-12-02T04:10:04.953Z,99142.52
2018-12-02T04:10:39.585Z,99138.20
2018-12-02T04:11:14.493Z,99137.64
2018-12-02T04:11:49.100Z,99140.72
2018-12-02T04:12:24.193Z,99133.12
2018-12-02T04:12:59.161Z,99131.53
2018-12-02T04:13:33.928Z,99132.87
2018-12-02T04:14:08.646Z,99134.73
2018-12-02T04:14:43.314Z,99138.98
2018-12-02T04:15:22.466Z,99128.95
2018-12-02T04:15:57.235Z,99131.70
2018-12-02T04:16:31.959Z,99127.06
2018-12-02T04:17:06.616Z,99128.75
2018-12-02T04:17:42.127Z,99130.09
2018-12-02T04:18:16.741Z,99127.79
2018-12-02T04:18:51.490Z,99122.43
2018-12-02T04:19:26.199Z,99125.09
2018-12-02T04:20:00.907Z,99125.99
2018-12-02T04:20:35.521Z,99131.14
2018-12-02T04:21:10.163Z,99133.71
2018-12-02T04:21:44.866Z,99130.42
2018-12-02T04:22:19.580Z,99133.39
2018-12-02T04:22:54.592Z,99125.45
2018-12-02T04:23:29.290Z,99121.74
2018-12-02T04:24:03.951Z,99133.50
2018-12-02T04:24:38.556Z,99126.95
2018-12-02T04:25:18.192Z,99122.76
2018-12-02T04:25:52.949Z,99140.15
2018-12-02T04:26:27.647Z,99132.37
2018-12-02T04:27:02.346Z,99129.91
2018-12-02T04:27:37.002Z,99127.39
2018-12-02T04:28:11.722Z,99123.80
2018-12-02T04:28:46.330Z,99127.84
2018-12-02T04:29:20.986Z,99120.78
2018-12-02T04:29:55.943Z,99130.09
2018-12-02T04:30:30.666Z,99122.70
2018-12-02T04:31:06.005Z,99127.13
2018-12-02T04:31:40.623Z,99114.53
2018-12-02T04:32:15.321Z,99126.05
2018-12-02T04:32:51.084Z,99123.36
2018-12-02T04:33:25.783Z,99114.23
2018-12-02T04:34:00.521Z,99122.76
2018-12-02T04:34:35.222Z,99122.97
2018-12-02T04:35:14.375Z,99111.69
2018-12-02T04:35:49.418Z,99115.81
2018-12-02T04:36:24.221Z,99121.41
2018-12-02T04:36:59.179Z,99115.48
2018-12-02T04:37:33.823Z,99116.95
2018-12-02T04:38:08.433Z,99118.00
2018-12-02T04:38:43.044Z,99117.77
2018-12-02T04:39:17.662Z,99122.58
2018-12-02T04:39:52.370Z,99118.57
2018-12-02T04:40:27.072Z,99115.42
2018-12-02T04:41:01.725Z,99112.34
2018-12-02T04:41:36.626Z,99113.12
2018-12-02T04:42:11.236Z,99114.14
2018-12-02T04:42:45.859Z,99108.59
2018-12-02T04:43:20.501Z,99114.02
2018-12-02T04:43:55.267Z,99108.99
2018-12-02T04:44:30.033Z,99119.80
2018-12-02T04:45:05.054Z,99107.53
2018-12-02T04:45:39.664Z,99107.77
2018-12-02T04:46:14.299Z,99104.36
2018-12-02T04:46:48.909Z,99106.09
2018-12-02T04:47:23.727Z,99113.69
2018-12-02T04:47:58.454Z,99106.48
2018-12-02T04:48:33.086Z,99101.60
2018-12-02T04:49:07.845Z,99107.26
2018-12-02T04:49:42.476Z,99093.82
2018-12-02T04:50:23.815Z,99110.34
2018-12-02T04:50:58.539Z,99093.61
2018-12-02T04:51:33.319Z,99098.42
2018-12-02T04:52:07.986Z,99099.41
2018-12-02T04:52:42.577Z,99106.98
2018-12-02T04:53:17.199Z,99101.21
2018-12-02T04:53:51.905Z,99092.32
2018-12-02T04:54:26.575Z,99093.55
2018-12-02T04:55:01.284Z,99088.41
2018-12-02T04:55:35.966Z,99089.00
2018-12-02T04:56:10.678Z,99085.20
2018-12-02T04:56:45.314Z,99079.96
2018-12-02T04:57:19.960Z,99096.36
2018-12-02T04:57:54.688Z,99090.08
2018-12-02T04:58:29.482Z,99092.05
2018-12-02T04:59:04.125Z,99085.83
2018-12-02T04:59:38.766Z,99102.37
2018-12-02T05:00:18.341Z,99085.44
2018-12-02T05:00:53.363Z,99083.19
2018-12-02T05:01:28.119Z,99074.96
2018-12-02T05:02:02.872Z,99083.04
2018-12-02T05:02:37.525Z,99078.88
2018-12-02T05:03:12.196Z,99079.45
2018-12-02T05:03:46.792Z,99076.70
2018-12-02T05:04:21.443Z,99072.78
2018-12-02T05:04:56.476Z,99069.43
2018-12-02T05:05:31.108Z,99073.73
2018-12-02T05:06:05.818Z,99067.19
2018-12-02T05:06:40.495Z,99075.47
2018-12-02T05:07:15.158Z,99076.04
2018-12-02T05:07:49.855Z,99076.04
2018-12-02T05:08:24.736Z,99065.51
2018-12-02T05:08:59.525Z,99072.84
2018-12-02T05:09:34.142Z,99070.05
2018-12-02T05:10:11.568Z,99067.81
2018-12-02T05:10:46.171Z,99065.63
2018-12-02T05:11:20.802Z,99072.39
2018-12-02T05:11:55.666Z,99076.10
2018-12-02T05:12:30.475Z,99066.13
2018-12-02T05:13:05.769Z,99060.98
2018-12-02T05:13:40.508Z,99062.15
2018-12-02T05:14:15.149Z,99068.13
2018-12-02T05:14:49.865Z,99075.65
2018-12-02T05:15:24.620Z,99080.80
2018-12-02T05:15:59.330Z,99070.38
2018-12-02T05:16:33.984Z,99060.47
2018-12-02T05:17:08.669Z,99067.03
2018-12-02T05:17:43.650Z,99065.51
2018-12-02T05:18:18.291Z,99065.18
2018-12-02T05:18:53.505Z,99059.46
2018-12-02T05:19:28.307Z,99056.80
2018-12-02T05:20:03.036Z,99048.44
2018-12-02T05:20:37.688Z,99060.32
2018-12-02T05:21:12.468Z,99047.99
2018-12-02T05:21:47.110Z,99047.22
2018-12-02T05:22:21.882Z,99052.30
2018-12-02T05:22:56.649Z,99047.77
2018-12-02T05:23:31.418Z,99051.86
2018-12-02T05:24:06.144Z,99044.19
2018-12-02T05:24:40.809Z,99044.19
2018-12-02T05:25:17.930Z,99047.22
2018-12-02T05:25:50.993Z,99049.66
2018-12-02T05:26:25.790Z,99040.78
2018-12-02T05:27:00.466Z,99036.69
2018-12-02T05:27:35.174Z,99039.05
2018-12-02T05:28:09.836Z,99042.45
2018-12-02T05:28:44.458Z,99051.02
2018-12-02T05:29:19.093Z,99045.36
2018-12-02T05:29:54.086Z,99046.25
2018-12-02T05:30:28.863Z,99057.00
2018-12-02T05:31:03.528Z,99041.68
2018-12-02T05:31:38.292Z,99036.34
2018-12-02T05:32:12.882Z,99040.20
2018-12-02T05:32:48.347Z,99029.43
2018-12-02T05:33:23.006Z,99039.44
2018-12-02T05:33:57.640Z,99025.57
2018-12-02T05:34:32.274Z,99028.62
2018-12-02T05:35:07.884Z,99029.08
2018-12-02T05:35:42.512Z,99034.41
2018-12-02T05:36:17.117Z,99024.89
2018-12-02T05:36:51.781Z,99026.80
2018-12-02T05:37:26.618Z,99026.41
2018-12-02T05:38:01.388Z,99034.84
2018-12-02T05:38:36.000Z,99027.02
2018-12-02T05:39:10.871Z,99030.66
2018-12-02T05:39:45.533Z,99036.64
2018-12-02T05:40:21.968Z,99035.41
2018-12-02T05:40:56.639Z,99027.24
2018-12-02T05:41:36.563Z,99029.14
2018-12-02T05:42:16.487Z,99025.95
2018-12-02T05:42:51.805Z,99021.64
2018-12-02T05:43:26.678Z,99025.06
2018-12-02T05:44:01.531Z,99023.59
2018-12-02T05:44:36.322Z,99022.70
2018-12-02T05:45:11.978Z,99019.41
2018-12-02T05:45:46.602Z,99013.97
2018-12-02T05:46:21.254Z,99018.19
2018-12-02T05:46:56.027Z,99010.52
2018-12-02T05:47:31.056Z,99009.61
2018-12-02T05:48:06.162Z,99016.95
2018-12-02T05:48:40.803Z,99011.41
2018-12-02T05:49:15.612Z,99023.92
2018-12-02T05:49:50.258Z,99019.68
2018-12-02T05:50:25.849Z,99022.94
2018-12-02T05:51:00.603Z,99016.38
2018-12-02T05:51:35.362Z,99018.39
2018-12-02T05:52:10.036Z,99017.10
2018-12-02T05:52:45.791Z,99017.94
2018-12-02T05:53:20.483Z,99024.28
2018-12-02T05:53:55.507Z,99017.29
2018-12-02T05:54:30.396Z,99020.77
2018-12-02T05:55:06.265Z,99019.07
2018-12-02T05:55:40.930Z,99013.47
2018-12-02T05:56:15.598Z,99026.17
2018-12-02T05:56:50.334Z,99013.09
2018-12-02T05:57:25.212Z,99009.48
2018-12-02T05:58:00.143Z,99014.03
2018-12-02T05:58:34.787Z,99016.89
2018-12-02T05:59:09.517Z,99005.70
2018-12-02T05:59:44.190Z,99002.17
2018-12-02T06:00:20.406Z,99002.50
2018-12-02T06:00:55.173Z,99001.50
2018-12-02T06:01:29.886Z,98996.70
2018-12-02T06:02:04.639Z,98995.41
2018-12-02T06:02:39.696Z,99009.50
2018-12-02T06:03:14.337Z,99007.70
2018-12-02T06:03:49.178Z,99003.69
2018-12-02T06:04:23.906Z,99011.41
2018-12-02T06:04:58.807Z,98997.80
2018-12-02T06:05:33.521Z,99003.46
2018-12-02T06:06:08.160Z,98998.14
2018-12-02T06:06:42.762Z,99004.80
2018-12-02T06:07:17.403Z,99004.68
2018-12-02T06:07:52.367Z,99009.50
2018-12-02T06:08:28.499Z,98999.21
2018-12-02T06:09:03.268Z,98993.83
2018-12-02T06:09:37.863Z,99003.97
2018-12-02T06:10:16.609Z,98998.08
2018-12-02T06:10:51.220Z,98998.66
2018-12-02T06:11:26.001Z,99000.00
2018-12-02T06:12:00.747Z,98994.85
2018-12-02T06:12:35.550Z,98991.77
2018-12-02T06:13:10.130Z,98997.09
2018-12-02T06:13:44.721Z,98985.72
2018-12-02T06:14:19.322Z,99007.21
2018-12-02T06:14:54.202Z,98996.86
2018-12-02T06:15:28.833Z,98997.75
2018-12-02T06:16:03.845Z,99003.47
2018-12-02T06:16:38.425Z,98996.20
2018-12-02T06:17:13.026Z,98988.48
2018-12-02T06:17:48.012Z,98982.89
2018-12-02T06:18:22.954Z,98985.27
2018-12-02T06:18:57.741Z,98987.24
2018-12-02T06:19:32.519Z,98983.53
2018-12-02T06:20:12.875Z,98982.09
2018-12-02T06:20:47.419Z,98984.77
2018-12-02T06:21:22.027Z,98986.95
2018-12-02T06:21:56.933Z,98987.89
2018-12-02T06:22:31.556Z,98976.95
2018-12-02T06:23:06.633Z,98976.56
2018-12-02T06:23:41.243Z,98982.55
2018-12-02T06:24:15.838Z,98981.97
2018-12-02T06:24:50.422Z,98979.39
2018-12-02T06:25:25.577Z,98985.55
2018-12-02T06:26:00.144Z,98969.03
2018-12-02T06:26:34.711Z,98986.79
2018-12-02T06:27:09.343Z,98978.23
2018-12-02T06:27:44.254Z,98974.82
2018-12-02T06:28:18.836Z,98978.45
2018-12-02T06:28:53.534Z,98975.43
2018-12-02T06:29:28.170Z,98980.70
2018-12-02T06:30:02.834Z,98988.08
2018-12-02T06:30:37.420Z,98978.39
2018-12-02T06:31:12.017Z,98977.27
2018-12-02T06:31:46.598Z,98980.36
2018-12-02T06:32:21.256Z,98983.31
2018-12-02T06:33:00.273Z,98971.69
2018-12-02T06:33:34.868Z,98976.45
2018-12-02T06:34:09.562Z,98982.14
2018-12-02T06:34:44.306Z,98978.13
2018-12-02T06:35:19.295Z,98983.09
2018-12-02T06:35:54.091Z,98974.82
2018-12-02T06:36:28.902Z,98976.72
2018-12-02T06:37:03.522Z,98979.73
2018-12-02T06:37:38.204Z,98984.05
2018-12-02T06:38:12.780Z,98975.38
2018-12-02T06:38:47.462Z,98977.73
2018-12-02T06:39:22.113Z,98978.64
2018-12-02T06:39:56.960Z,98982.77
2018-12-02T06:40:32.089Z,98991.38
2018-12-02T06:41:07.205Z,98977.45
2018-12-02T06:41:41.850Z,98979.92
2018-12-02T06:42:16.602Z,98985.84
2018-12-02T06:42:52.006Z,98985.78
2018-12-02T06:43:26.964Z,98977.83
2018-12-02T06:44:01.915Z,98983.88
2018-12-02T06:44:36.585Z,98977.73
2018-12-02T06:45:12.868Z,98984.27
2018-12-02T06:45:47.524Z,98976.61
2018-12-02T06:46:22.330Z,98984.72
2018-12-02T06:46:57.050Z,98983.43
2018-12-02T06:47:32.222Z,98981.49
2018-12-02T06:48:06.849Z,98986.52
2018-12-02T06:48:41.506Z,98989.26
2018-12-02T06:49:16.137Z,98984.38
2018-12-02T06:49:51.236Z,98978.45
2018-12-02T06:50:27.371Z,98985.84
2018-12-02T06:51:02.104Z,98980.86
2018-12-02T06:51:36.856Z,98976.22
2018-12-02T06:52:11.651Z,98988.03
2018-12-02T06:52:46.417Z,98996.14
2018-12-02T06:53:21.166Z,98982.31
2018-12-02T06:53:55.915Z,98984.89
2018-12-02T06:54:30.669Z,98990.03
2018-12-02T06:55:07.832Z,98985.02
2018-12-02T06:55:45.200Z,98989.09
2018-12-02T06:56:22.158Z,98990.38
2018-12-02T06:56:56.854Z,98995.80
2018-12-02T06:57:31.657Z,98978.17
2018-12-02T06:58:13.478Z,98973.26
2018-12-02T06:59:26.638Z,98988.98